sensor_id;sensor_type;location;lat;lon;timestamp;temperature;humidity
3312;DHT22;1668;49.648;8.570;2023-03-11T00:01:41;2.90;1.00
3312;DHT22;1668;49.648;8.570;2023-03-11T00:04:09;2.80;1.00
3312;DHT22;1668;49.648;8.570;2023-03-11T00:06:36;2.80;1.00
3312;DHT22;1668;49.648;8.570;2023-03-11T00:09:03;2.80;1.00
3312;DHT22;1668;49.648;8.570;2023-03-11T00:11:30;2.80;1.00
3312;DHT22;1668;49.648;8.570;2023-03-11T00:13:57;2.70;1.00
3312;DHT22;1668;49.648;8.570;2023-03-11T00:16:24;2.70;1.00
3312;DHT22;1668;49.648;8.570;2023-03-11T00:18:51;2.70;1.00
3312;DHT22;1668;49.648;8.570;2023-03-11T00:21:19;2.70;1.00
3312;DHT22;1668;49.648;8.570;2023-03-11T00:23:46;2.70;1.00
3312;DHT22;1668;49.648;8.570;2023-03-11T00:26:13;2.60;1.00
3312;DHT22;1668;49.648;8.570;2023-03-11T00:28:40;2.60;1.00
3312;DHT22;1668;49.648;8.570;2023-03-11T00:31:07;2.60;1.00
3312;DHT22;1668;49.648;8.570;2023-03-11T00:33:34;2.60;1.00
3312;DHT22;1668;49.648;8.570;2023-03-11T00:36:01;2.50;1.00
3312;DHT22;1668;49.648;8.570;2023-03-11T00:38:29;2.50;13.40
3312;DHT22;1668;49.648;8.570;2023-03-11T00:40:56;2.40;21.60
3312;DHT22;1668;49.648;8.570;2023-03-11T00:43:26;2.40;24.30
3312;DHT22;1668;49.648;8.570;2023-03-11T00:45:53;2.40;86.50
3312;DHT22;1668;49.648;8.570;2023-03-11T00:48:19;2.40;89.10
3312;DHT22;1668;49.648;8.570;2023-03-11T00:50:46;2.30;99.90
3312;DHT22;1668;49.648;8.570;2023-03-11T00:53:13;2.30;99.90
3312;DHT22;1668;49.648;8.570;2023-03-11T00:55:41;2.30;99.90
3312;DHT22;1668;49.648;8.570;2023-03-11T00:58:10;2.30;99.90
3312;DHT22;1668;49.648;8.570;2023-03-11T01:00:37;2.30;99.90
3312;DHT22;1668;49.648;8.570;2023-03-11T01:03:04;2.30;99.90
3312;DHT22;1668;49.648;8.570;2023-03-11T01:05:32;2.30;99.90
3312;DHT22;1668;49.648;8.570;2023-03-11T01:08:00;2.30;99.90
3312;DHT22;1668;49.648;8.570;2023-03-11T01:10:28;2.30;99.90
3312;DHT22;1668;49.648;8.570;2023-03-11T01:12:56;2.30;99.90
3312;DHT22;1668;49.648;8.570;2023-03-11T01:15:26;2.40;99.90
3312;DHT22;1668;49.648;8.570;2023-03-11T01:17:53;2.40;99.90
3312;DHT22;1668;49.648;8.570;2023-03-11T01:20:21;2.40;99.90
3312;DHT22;1668;49.648;8.570;2023-03-11T01:22:47;2.40;99.90
3312;DHT22;1668;49.648;8.570;2023-03-11T01:25:16;2.40;99.90
3312;DHT22;1668;49.648;8.570;2023-03-11T01:27:43;2.40;99.90
3312;DHT22;1668;49.648;8.570;2023-03-11T01:30:15;2.40;99.90
3312;DHT22;1668;49.648;8.570;2023-03-11T01:32:42;2.40;99.90
3312;DHT22;1668;49.648;8.570;2023-03-11T01:35:11;2.30;99.90
3312;DHT22;1668;49.648;8.570;2023-03-11T01:37:38;2.40;99.90
3312;DHT22;1668;49.648;8.570;2023-03-11T01:40:07;2.30;99.90
3312;DHT22;1668;49.648;8.570;2023-03-11T01:42:34;2.30;99.90
3312;DHT22;1668;49.648;8.570;2023-03-11T01:45:01;2.30;99.90
3312;DHT22;1668;49.648;8.570;2023-03-11T01:47:40;2.30;99.90
3312;DHT22;1668;49.648;8.570;2023-03-11T01:50:10;2.30;99.90
3312;DHT22;1668;49.648;8.570;2023-03-11T01:52:39;2.30;99.90
3312;DHT22;1668;49.648;8.570;2023-03-11T01:55:08;2.30;99.90
3312;DHT22;1668;49.648;8.570;2023-03-11T01:57:37;2.30;99.90
3312;DHT22;1668;49.648;8.570;2023-03-11T02:00:08;2.30;99.90
3312;DHT22;1668;49.648;8.570;2023-03-11T02:02:41;2.30;99.90
3312;DHT22;1668;49.648;8.570;2023-03-11T02:05:08;2.30;99.90
3312;DHT22;1668;49.648;8.570;2023-03-11T02:07:37;2.30;99.90
3312;DHT22;1668;49.648;8.570;2023-03-11T02:10:05;2.30;99.90
3312;DHT22;1668;49.648;8.570;2023-03-11T02:12:34;2.30;99.90
3312;DHT22;1668;49.648;8.570;2023-03-11T02:15:03;2.30;99.90
3312;DHT22;1668;49.648;8.570;2023-03-11T02:17:31;2.30;99.90
3312;DHT22;1668;49.648;8.570;2023-03-11T02:20:12;2.30;99.90
3312;DHT22;1668;49.648;8.570;2023-03-11T02:22:42;2.40;99.90
3312;DHT22;1668;49.648;8.570;2023-03-11T02:25:16;2.30;99.90
3312;DHT22;1668;49.648;8.570;2023-03-11T02:27:47;2.30;99.90
3312;DHT22;1668;49.648;8.570;2023-03-11T02:30:16;2.40;99.90
3312;DHT22;1668;49.648;8.570;2023-03-11T02:32:44;2.40;99.90
3312;DHT22;1668;49.648;8.570;2023-03-11T02:35:13;2.30;99.90
3312;DHT22;1668;49.648;8.570;2023-03-11T02:37:43;2.30;99.90
3312;DHT22;1668;49.648;8.570;2023-03-11T02:40:51;2.30;99.90
3312;DHT22;1668;49.648;8.570;2023-03-11T02:43:26;2.30;99.90
3312;DHT22;1668;49.648;8.570;2023-03-11T02:45:55;2.30;99.90
3312;DHT22;1668;49.648;8.570;2023-03-11T02:48:22;2.30;99.90
3312;DHT22;1668;49.648;8.570;2023-03-11T02:50:50;2.30;99.90
3312;DHT22;1668;49.648;8.570;2023-03-11T02:53:17;2.30;99.90
3312;DHT22;1668;49.648;8.570;2023-03-11T02:55:44;2.30;99.90
3312;DHT22;1668;49.648;8.570;2023-03-11T02:58:11;2.30;99.90
3312;DHT22;1668;49.648;8.570;2023-03-11T03:00:39;2.30;99.90
3312;DHT22;1668;49.648;8.570;2023-03-11T03:03:06;2.20;99.90
3312;DHT22;1668;49.648;8.570;2023-03-11T03:05:35;2.20;99.90
3312;DHT22;1668;49.648;8.570;2023-03-11T03:08:01;2.20;99.90
3312;DHT22;1668;49.648;8.570;2023-03-11T03:10:29;2.20;99.90
3312;DHT22;1668;49.648;8.570;2023-03-11T03:12:56;2.20;99.90
3312;DHT22;1668;49.648;8.570;2023-03-11T03:15:22;2.20;1.00
3312;DHT22;1668;49.648;8.570;2023-03-11T03:17:51;2.10;99.90
3312;DHT22;1668;49.648;8.570;2023-03-11T03:20:18;2.10;1.00
3312;DHT22;1668;49.648;8.570;2023-03-11T03:22:47;2.10;1.00
3312;DHT22;1668;49.648;8.570;2023-03-11T03:25:14;2.10;1.00
3312;DHT22;1668;49.648;8.570;2023-03-11T03:27:41;2.00;1.00
3312;DHT22;1668;49.648;8.570;2023-03-11T03:30:09;2.00;1.00
3312;DHT22;1668;49.648;8.570;2023-03-11T03:32:37;2.00;1.00
3312;DHT22;1668;49.648;8.570;2023-03-11T03:35:06;2.00;1.00
3312;DHT22;1668;49.648;8.570;2023-03-11T03:37:34;2.00;1.00
3312;DHT22;1668;49.648;8.570;2023-03-11T03:40:03;2.00;1.00
3312;DHT22;1668;49.648;8.570;2023-03-11T03:42:33;2.00;1.00
3312;DHT22;1668;49.648;8.570;2023-03-11T03:45:00;2.00;1.00
3312;DHT22;1668;49.648;8.570;2023-03-11T03:47:27;1.90;1.00
3312;DHT22;1668;49.648;8.570;2023-03-11T03:49:53;1.90;1.00
3312;DHT22;1668;49.648;8.570;2023-03-11T03:52:22;1.90;1.00
3312;DHT22;1668;49.648;8.570;2023-03-11T03:54:49;1.90;1.00
3312;DHT22;1668;49.648;8.570;2023-03-11T03:57:16;2.00;1.00
3312;DHT22;1668;49.648;8.570;2023-03-11T03:59:42;2.00;1.00
3312;DHT22;1668;49.648;8.570;2023-03-11T04:02:09;1.90;1.00
3312;DHT22;1668;49.648;8.570;2023-03-11T04:04:36;2.00;1.00
3312;DHT22;1668;49.648;8.570;2023-03-11T04:07:03;1.90;1.00
3312;DHT22;1668;49.648;8.570;2023-03-11T04:09:32;1.90;1.00
3312;DHT22;1668;49.648;8.570;2023-03-11T04:11:59;1.90;1.00
3312;DHT22;1668;49.648;8.570;2023-03-11T04:14:26;1.90;1.00
3312;DHT22;1668;49.648;8.570;2023-03-11T04:16:53;1.90;1.00
3312;DHT22;1668;49.648;8.570;2023-03-11T04:19:20;1.90;1.00
3312;DHT22;1668;49.648;8.570;2023-03-11T04:21:47;1.90;1.00
3312;DHT22;1668;49.648;8.570;2023-03-11T04:24:15;1.90;1.00
3312;DHT22;1668;49.648;8.570;2023-03-11T04:26:43;1.90;1.00
3312;DHT22;1668;49.648;8.570;2023-03-11T04:29:10;1.90;1.00
3312;DHT22;1668;49.648;8.570;2023-03-11T04:31:37;1.90;1.00
3312;DHT22;1668;49.648;8.570;2023-03-11T04:34:04;1.90;99.90
3312;DHT22;1668;49.648;8.570;2023-03-11T04:36:30;1.80;50.80
3312;DHT22;1668;49.648;8.570;2023-03-11T04:38:57;1.80;1.00
3312;DHT22;1668;49.648;8.570;2023-03-11T04:41:24;1.80;1.00
3312;DHT22;1668;49.648;8.570;2023-03-11T04:43:52;1.80;99.90
3312;DHT22;1668;49.648;8.570;2023-03-11T04:46:19;1.70;99.90
3312;DHT22;1668;49.648;8.570;2023-03-11T04:48:46;1.70;55.20
3312;DHT22;1668;49.648;8.570;2023-03-11T04:51:13;1.70;99.90
3312;DHT22;1668;49.648;8.570;2023-03-11T04:53:40;1.80;99.90
3312;DHT22;1668;49.648;8.570;2023-03-11T04:56:07;1.80;99.90
3312;DHT22;1668;49.648;8.570;2023-03-11T04:58:34;1.70;99.90
3312;DHT22;1668;49.648;8.570;2023-03-11T05:01:02;1.70;99.90
3312;DHT22;1668;49.648;8.570;2023-03-11T05:03:29;1.80;99.90
3312;DHT22;1668;49.648;8.570;2023-03-11T05:05:56;1.70;99.90
3312;DHT22;1668;49.648;8.570;2023-03-11T05:08:25;1.70;99.90
3312;DHT22;1668;49.648;8.570;2023-03-11T05:10:52;1.70;99.90
3312;DHT22;1668;49.648;8.570;2023-03-11T05:13:19;1.60;99.90
3312;DHT22;1668;49.648;8.570;2023-03-11T05:15:46;1.60;1.00
3312;DHT22;1668;49.648;8.570;2023-03-11T05:18:15;1.70;1.00
3312;DHT22;1668;49.648;8.570;2023-03-11T05:20:42;1.70;1.00
3312;DHT22;1668;49.648;8.570;2023-03-11T05:23:08;1.70;1.00
3312;DHT22;1668;49.648;8.570;2023-03-11T05:25:35;1.80;99.90
3312;DHT22;1668;49.648;8.570;2023-03-11T05:28:03;1.70;1.00
3312;DHT22;1668;49.648;8.570;2023-03-11T05:30:30;1.70;10.40
3312;DHT22;1668;49.648;8.570;2023-03-11T05:32:57;1.70;1.00
3312;DHT22;1668;49.648;8.570;2023-03-11T05:35:25;1.70;1.00
3312;DHT22;1668;49.648;8.570;2023-03-11T05:37:52;1.70;1.00
3312;DHT22;1668;49.648;8.570;2023-03-11T05:40:19;1.60;1.00
3312;DHT22;1668;49.648;8.570;2023-03-11T05:42:46;1.60;1.00
3312;DHT22;1668;49.648;8.570;2023-03-11T05:45:13;1.60;1.00
3312;DHT22;1668;49.648;8.570;2023-03-11T05:47:40;1.60;99.90
3312;DHT22;1668;49.648;8.570;2023-03-11T05:50:09;1.60;99.90
3312;DHT22;1668;49.648;8.570;2023-03-11T05:52:37;1.60;99.90
3312;DHT22;1668;49.648;8.570;2023-03-11T05:55:05;1.60;99.90
3312;DHT22;1668;49.648;8.570;2023-03-11T05:57:34;1.60;99.90
3312;DHT22;1668;49.648;8.570;2023-03-11T06:00:02;1.60;99.90
3312;DHT22;1668;49.648;8.570;2023-03-11T06:02:30;1.60;99.90
3312;DHT22;1668;49.648;8.570;2023-03-11T06:04:57;1.60;99.90
3312;DHT22;1668;49.648;8.570;2023-03-11T06:07:23;1.60;99.90
3312;DHT22;1668;49.648;8.570;2023-03-11T06:09:52;1.60;99.90
3312;DHT22;1668;49.648;8.570;2023-03-11T06:12:18;1.60;99.90
3312;DHT22;1668;49.648;8.570;2023-03-11T06:14:45;1.50;99.90
3312;DHT22;1668;49.648;8.570;2023-03-11T06:17:12;1.50;99.90
3312;DHT22;1668;49.648;8.570;2023-03-11T06:19:39;1.50;99.90
3312;DHT22;1668;49.648;8.570;2023-03-11T06:22:06;1.50;99.90
3312;DHT22;1668;49.648;8.570;2023-03-11T06:24:33;1.50;1.00
3312;DHT22;1668;49.648;8.570;2023-03-11T06:27:01;1.50;1.00
3312;DHT22;1668;49.648;8.570;2023-03-11T06:29:28;1.50;1.00
3312;DHT22;1668;49.648;8.570;2023-03-11T06:31:55;1.40;60.20
3312;DHT22;1668;49.648;8.570;2023-03-11T06:34:22;1.40;99.90
3312;DHT22;1668;49.648;8.570;2023-03-11T06:36:49;1.40;99.90
3312;DHT22;1668;49.648;8.570;2023-03-11T06:39:16;1.40;99.90
3312;DHT22;1668;49.648;8.570;2023-03-11T06:41:43;1.40;1.00
3312;DHT22;1668;49.648;8.570;2023-03-11T06:44:11;1.40;1.00
3312;DHT22;1668;49.648;8.570;2023-03-11T06:46:38;1.40;1.00
3312;DHT22;1668;49.648;8.570;2023-03-11T06:49:05;1.40;99.90
3312;DHT22;1668;49.648;8.570;2023-03-11T06:51:32;1.40;99.90
3312;DHT22;1668;49.648;8.570;2023-03-11T06:53:59;1.40;99.90
3312;DHT22;1668;49.648;8.570;2023-03-11T06:56:26;1.40;1.00
3312;DHT22;1668;49.648;8.570;2023-03-11T06:58:53;1.40;99.90
3312;DHT22;1668;49.648;8.570;2023-03-11T07:01:23;1.40;1.00
3312;DHT22;1668;49.648;8.570;2023-03-11T07:03:51;1.30;99.90
3312;DHT22;1668;49.648;8.570;2023-03-11T07:06:19;1.30;99.90
3312;DHT22;1668;49.648;8.570;2023-03-11T07:08:48;1.30;99.90
3312;DHT22;1668;49.648;8.570;2023-03-11T07:11:17;1.30;99.90
3312;DHT22;1668;49.648;8.570;2023-03-11T07:13:45;1.30;1.00
3312;DHT22;1668;49.648;8.570;2023-03-11T07:16:13;1.30;99.90
3312;DHT22;1668;49.648;8.570;2023-03-11T07:18:43;1.30;99.90
3312;DHT22;1668;49.648;8.570;2023-03-11T07:21:12;1.30;1.00
3312;DHT22;1668;49.648;8.570;2023-03-11T07:23:39;1.30;1.00
3312;DHT22;1668;49.648;8.570;2023-03-11T07:26:07;1.40;1.00
3312;DHT22;1668;49.648;8.570;2023-03-11T07:28:34;1.40;99.90
3312;DHT22;1668;49.648;8.570;2023-03-11T07:31:06;1.40;99.90
3312;DHT22;1668;49.648;8.570;2023-03-11T07:33:33;1.40;99.90
3312;DHT22;1668;49.648;8.570;2023-03-11T07:36:04;1.40;99.80
3312;DHT22;1668;49.648;8.570;2023-03-11T07:38:31;1.40;99.90
3312;DHT22;1668;49.648;8.570;2023-03-11T07:40:59;1.40;1.00
3312;DHT22;1668;49.648;8.570;2023-03-11T07:43:26;1.50;2.20
3312;DHT22;1668;49.648;8.570;2023-03-11T07:46:01;1.50;1.00
3312;DHT22;1668;49.648;8.570;2023-03-11T07:48:28;1.60;1.00
3312;DHT22;1668;49.648;8.570;2023-03-11T07:51:01;1.60;1.00
3312;DHT22;1668;49.648;8.570;2023-03-11T07:53:28;1.70;1.00
3312;DHT22;1668;49.648;8.570;2023-03-11T07:55:55;1.70;99.90
3312;DHT22;1668;49.648;8.570;2023-03-11T07:58:22;1.80;1.00
3312;DHT22;1668;49.648;8.570;2023-03-11T08:00:48;1.80;1.00
3312;DHT22;1668;49.648;8.570;2023-03-11T08:03:16;1.90;1.00
3312;DHT22;1668;49.648;8.570;2023-03-11T08:05:43;1.90;9.40
3312;DHT22;1668;49.648;8.570;2023-03-11T08:08:11;1.90;1.00
3312;DHT22;1668;49.648;8.570;2023-03-11T08:10:38;2.00;51.70
3312;DHT22;1668;49.648;8.570;2023-03-11T08:13:05;2.00;1.00
3312;DHT22;1668;49.648;8.570;2023-03-11T08:15:32;2.10;1.00
3312;DHT22;1668;49.648;8.570;2023-03-11T08:17:59;2.20;1.00
3312;DHT22;1668;49.648;8.570;2023-03-11T08:20:26;2.30;1.00
3312;DHT22;1668;49.648;8.570;2023-03-11T08:22:53;2.30;1.00
3312;DHT22;1668;49.648;8.570;2023-03-11T08:25:21;2.40;1.00
3312;DHT22;1668;49.648;8.570;2023-03-11T08:27:48;2.50;1.00
3312;DHT22;1668;49.648;8.570;2023-03-11T08:30:15;2.50;1.00
3312;DHT22;1668;49.648;8.570;2023-03-11T08:32:42;2.60;1.00
3312;DHT22;1668;49.648;8.570;2023-03-11T08:35:09;2.70;1.00
3312;DHT22;1668;49.648;8.570;2023-03-11T08:37:36;2.80;99.90
3312;DHT22;1668;49.648;8.570;2023-03-11T08:40:04;2.80;99.90
3312;DHT22;1668;49.648;8.570;2023-03-11T08:42:32;2.80;99.90
3312;DHT22;1668;49.648;8.570;2023-03-11T08:44:59;2.80;42.90
3312;DHT22;1668;49.648;8.570;2023-03-11T08:47:26;2.80;28.60
3312;DHT22;1668;49.648;8.570;2023-03-11T08:49:53;2.80;91.90
3312;DHT22;1668;49.648;8.570;2023-03-11T08:52:20;2.90;99.90
3312;DHT22;1668;49.648;8.570;2023-03-11T08:54:47;3.00;99.90
3312;DHT22;1668;49.648;8.570;2023-03-11T08:57:14;3.10;91.10
3312;DHT22;1668;49.648;8.570;2023-03-11T08:59:42;3.20;7.80
3312;DHT22;1668;49.648;8.570;2023-03-11T09:02:09;3.20;28.40
3312;DHT22;1668;49.648;8.570;2023-03-11T09:04:36;3.20;81.10
3312;DHT22;1668;49.648;8.570;2023-03-11T09:07:03;3.20;26.20
3312;DHT22;1668;49.648;8.570;2023-03-11T09:09:31;3.30;34.60
3312;DHT22;1668;49.648;8.570;2023-03-11T09:11:58;3.50;1.60
3312;DHT22;1668;49.648;8.570;2023-03-11T09:14:24;3.60;13.50
3312;DHT22;1668;49.648;8.570;2023-03-11T09:16:53;3.80;1.00
3312;DHT22;1668;49.648;8.570;2023-03-11T09:19:20;3.90;1.00
3312;DHT22;1668;49.648;8.570;2023-03-11T09:21:47;3.90;1.00
3312;DHT22;1668;49.648;8.570;2023-03-11T09:24:14;3.80;1.00
3312;DHT22;1668;49.648;8.570;2023-03-11T09:26:41;3.80;1.00
3312;DHT22;1668;49.648;8.570;2023-03-11T09:29:08;3.70;1.00
3312;DHT22;1668;49.648;8.570;2023-03-11T09:31:35;3.60;1.00
3312;DHT22;1668;49.648;8.570;2023-03-11T09:34:05;3.70;1.00
3312;DHT22;1668;49.648;8.570;2023-03-11T09:36:31;3.80;1.00
3312;DHT22;1668;49.648;8.570;2023-03-11T09:38:59;3.90;1.00
3312;DHT22;1668;49.648;8.570;2023-03-11T09:41:33;4.10;1.00
3312;DHT22;1668;49.648;8.570;2023-03-11T09:44:11;4.20;1.00
3312;DHT22;1668;49.648;8.570;2023-03-11T09:47:07;4.20;1.00
3312;DHT22;1668;49.648;8.570;2023-03-11T09:49:58;4.30;1.00
3312;DHT22;1668;49.648;8.570;2023-03-11T09:52:36;4.30;1.00
3312;DHT22;1668;49.648;8.570;2023-03-11T09:58:10;4.10;1.00
3312;DHT22;1668;49.648;8.570;2023-03-11T10:00:38;4.10;1.00
3312;DHT22;1668;49.648;8.570;2023-03-11T10:03:13;4.40;1.00
3312;DHT22;1668;49.648;8.570;2023-03-11T10:05:45;4.50;1.00
3312;DHT22;1668;49.648;8.570;2023-03-11T10:08:18;4.60;1.00
3312;DHT22;1668;49.648;8.570;2023-03-11T10:10:53;4.70;1.00
3312;DHT22;1668;49.648;8.570;2023-03-11T10:13:28;4.60;1.00
3312;DHT22;1668;49.648;8.570;2023-03-11T10:16:05;4.50;1.00
3312;DHT22;1668;49.648;8.570;2023-03-11T10:18:46;4.50;1.00
3312;DHT22;1668;49.648;8.570;2023-03-11T10:21:31;4.50;1.00
3312;DHT22;1668;49.648;8.570;2023-03-11T10:24:16;4.50;1.00
3312;DHT22;1668;49.648;8.570;2023-03-11T10:26:48;4.60;1.00
3312;DHT22;1668;49.648;8.570;2023-03-11T10:29:20;4.80;1.00
3312;DHT22;1668;49.648;8.570;2023-03-11T10:31:53;4.70;1.00
3312;DHT22;1668;49.648;8.570;2023-03-11T10:34:26;4.70;1.00
3312;DHT22;1668;49.648;8.570;2023-03-11T10:37:02;4.70;1.00
3312;DHT22;1668;49.648;8.570;2023-03-11T10:39:32;4.60;1.00
3312;DHT22;1668;49.648;8.570;2023-03-11T10:42:01;4.60;1.00
3312;DHT22;1668;49.648;8.570;2023-03-11T10:44:32;4.60;1.00
3312;DHT22;1668;49.648;8.570;2023-03-11T10:47:00;4.50;1.00
3312;DHT22;1668;49.648;8.570;2023-03-11T10:49:27;4.50;1.00
3312;DHT22;1668;49.648;8.570;2023-03-11T10:51:55;4.50;1.00
3312;DHT22;1668;49.648;8.570;2023-03-11T10:54:26;4.40;1.00
3312;DHT22;1668;49.648;8.570;2023-03-11T10:56:55;4.40;1.00
3312;DHT22;1668;49.648;8.570;2023-03-11T10:59:26;4.50;1.00
3312;DHT22;1668;49.648;8.570;2023-03-11T11:01:55;4.50;1.00
3312;DHT22;1668;49.648;8.570;2023-03-11T11:04:29;4.70;1.00
3312;DHT22;1668;49.648;8.570;2023-03-11T11:06:56;5.20;1.00
3312;DHT22;1668;49.648;8.570;2023-03-11T11:09:26;5.50;1.00
3312;DHT22;1668;49.648;8.570;2023-03-11T11:12:05;5.80;1.00
3312;DHT22;1668;49.648;8.570;2023-03-11T11:14:46;6.20;1.00
3312;DHT22;1668;49.648;8.570;2023-03-11T11:17:23;6.20;1.00
3312;DHT22;1668;49.648;8.570;2023-03-11T11:19:53;6.10;1.00
3312;DHT22;1668;49.648;8.570;2023-03-11T11:22:22;6.00;1.00
3312;DHT22;1668;49.648;8.570;2023-03-11T11:24:52;5.80;1.00
3312;DHT22;1668;49.648;8.570;2023-03-11T11:27:21;5.70;1.00
3312;DHT22;1668;49.648;8.570;2023-03-11T11:30:11;5.70;1.00
3312;DHT22;1668;49.648;8.570;2023-03-11T11:32:39;5.60;1.00
3312;DHT22;1668;49.648;8.570;2023-03-11T11:35:10;5.60;1.00
3312;DHT22;1668;49.648;8.570;2023-03-11T11:37:40;5.60;1.00
3312;DHT22;1668;49.648;8.570;2023-03-11T11:40:27;5.60;1.00
3312;DHT22;1668;49.648;8.570;2023-03-11T11:42:56;5.60;1.00
3312;DHT22;1668;49.648;8.570;2023-03-11T11:45:29;5.60;1.00
3312;DHT22;1668;49.648;8.570;2023-03-11T11:48:04;5.50;1.00
3312;DHT22;1668;49.648;8.570;2023-03-11T11:50:34;5.50;1.00
3312;DHT22;1668;49.648;8.570;2023-03-11T11:53:12;5.60;1.00
3312;DHT22;1668;49.648;8.570;2023-03-11T11:55:45;5.80;1.00
3312;DHT22;1668;49.648;8.570;2023-03-11T11:58:13;5.70;1.00
3312;DHT22;1668;49.648;8.570;2023-03-11T12:00:48;5.80;1.00
3312;DHT22;1668;49.648;8.570;2023-03-11T12:03:37;5.90;1.00
3312;DHT22;1668;49.648;8.570;2023-03-11T12:06:16;5.90;1.00
3312;DHT22;1668;49.648;8.570;2023-03-11T12:08:52;6.10;1.00
3312;DHT22;1668;49.648;8.570;2023-03-11T12:11:29;6.30;1.00
3312;DHT22;1668;49.648;8.570;2023-03-11T12:14:03;6.30;1.00
3312;DHT22;1668;49.648;8.570;2023-03-11T12:16:40;6.40;1.00
3312;DHT22;1668;49.648;8.570;2023-03-11T12:19:25;6.50;1.00
3312;DHT22;1668;49.648;8.570;2023-03-11T12:22:21;6.70;1.00
3312;DHT22;1668;49.648;8.570;2023-03-11T12:25:15;6.60;1.00
3312;DHT22;1668;49.648;8.570;2023-03-11T12:27:52;6.60;1.00
3312;DHT22;1668;49.648;8.570;2023-03-11T12:30:24;6.50;1.00
3312;DHT22;1668;49.648;8.570;2023-03-11T12:32:56;6.40;1.00
3312;DHT22;1668;49.648;8.570;2023-03-11T12:35:26;6.40;1.00
3312;DHT22;1668;49.648;8.570;2023-03-11T12:37:56;6.20;1.00
3312;DHT22;1668;49.648;8.570;2023-03-11T12:40:57;6.10;1.00
3312;DHT22;1668;49.648;8.570;2023-03-11T12:47:12;6.00;1.00
3312;DHT22;1668;49.648;8.570;2023-03-11T12:49:43;6.00;1.00
3312;DHT22;1668;49.648;8.570;2023-03-11T12:52:23;6.20;1.00
3312;DHT22;1668;49.648;8.570;2023-03-11T12:58:33;6.30;1.00
3312;DHT22;1668;49.648;8.570;2023-03-11T13:01:34;6.30;1.00
3312;DHT22;1668;49.648;8.570;2023-03-11T13:04:24;6.30;1.00
3312;DHT22;1668;49.648;8.570;2023-03-11T13:10:04;6.20;1.00
3312;DHT22;1668;49.648;8.570;2023-03-11T13:12:39;6.20;1.00
3312;DHT22;1668;49.648;8.570;2023-03-11T13:15:33;6.20;1.00
3312;DHT22;1668;49.648;8.570;2023-03-11T13:18:02;6.30;1.00
3312;DHT22;1668;49.648;8.570;2023-03-11T13:20:59;6.20;1.00
3312;DHT22;1668;49.648;8.570;2023-03-11T13:23:32;6.30;1.00
3312;DHT22;1668;49.648;8.570;2023-03-11T13:26:24;6.30;1.00
3312;DHT22;1668;49.648;8.570;2023-03-11T13:29:23;6.30;1.00
3312;DHT22;1668;49.648;8.570;2023-03-11T13:32:24;6.20;1.00
3312;DHT22;1668;49.648;8.570;2023-03-11T13:34:59;6.10;1.00
3312;DHT22;1668;49.648;8.570;2023-03-11T13:37:36;6.10;1.00
3312;DHT22;1668;49.648;8.570;2023-03-11T13:40:16;6.00;1.00
3312;DHT22;1668;49.648;8.570;2023-03-11T13:42:47;5.90;1.00
3312;DHT22;1668;49.648;8.570;2023-03-11T13:45:25;5.90;1.00
3312;DHT22;1668;49.648;8.570;2023-03-11T13:47:56;6.00;1.00
3312;DHT22;1668;49.648;8.570;2023-03-11T13:50:27;5.90;1.00
3312;DHT22;1668;49.648;8.570;2023-03-11T13:52:58;5.80;1.00
3312;DHT22;1668;49.648;8.570;2023-03-11T13:55:31;5.80;1.00
3312;DHT22;1668;49.648;8.570;2023-03-11T13:57:59;5.90;1.00
3312;DHT22;1668;49.648;8.570;2023-03-11T14:00:28;5.90;1.00
3312;DHT22;1668;49.648;8.570;2023-03-11T14:03:01;5.90;1.00
3312;DHT22;1668;49.648;8.570;2023-03-11T14:05:30;6.00;1.00
3312;DHT22;1668;49.648;8.570;2023-03-11T14:08:12;6.00;1.00
3312;DHT22;1668;49.648;8.570;2023-03-11T14:10:50;5.90;1.00
3312;DHT22;1668;49.648;8.570;2023-03-11T14:13:18;6.00;1.00
3312;DHT22;1668;49.648;8.570;2023-03-11T14:15:50;6.00;1.00
3312;DHT22;1668;49.648;8.570;2023-03-11T14:18:29;6.00;1.00
3312;DHT22;1668;49.648;8.570;2023-03-11T14:20:57;6.10;1.00
3312;DHT22;1668;49.648;8.570;2023-03-11T14:23:29;6.10;1.00
3312;DHT22;1668;49.648;8.570;2023-03-11T14:26:00;6.10;1.00
3312;DHT22;1668;49.648;8.570;2023-03-11T14:28:39;6.10;1.00
3312;DHT22;1668;49.648;8.570;2023-03-11T14:31:24;6.10;1.00
3312;DHT22;1668;49.648;8.570;2023-03-11T14:33:56;6.10;1.00
3312;DHT22;1668;49.648;8.570;2023-03-11T14:36:29;6.10;1.00
3312;DHT22;1668;49.648;8.570;2023-03-11T14:38:57;6.10;1.00
3312;DHT22;1668;49.648;8.570;2023-03-11T14:41:24;6.20;1.00
3312;DHT22;1668;49.648;8.570;2023-03-11T14:43:52;6.10;1.00
3312;DHT22;1668;49.648;8.570;2023-03-11T14:46:23;6.10;1.00
3312;DHT22;1668;49.648;8.570;2023-03-11T14:48:51;6.10;1.00
3312;DHT22;1668;49.648;8.570;2023-03-11T14:51:21;5.90;1.00
3312;DHT22;1668;49.648;8.570;2023-03-11T14:54:05;6.00;1.00
3312;DHT22;1668;49.648;8.570;2023-03-11T14:56:37;6.00;1.00
3312;DHT22;1668;49.648;8.570;2023-03-11T14:59:11;6.10;1.00
3312;DHT22;1668;49.648;8.570;2023-03-11T15:01:40;6.00;1.00
3312;DHT22;1668;49.648;8.570;2023-03-11T15:04:11;6.10;1.00
3312;DHT22;1668;49.648;8.570;2023-03-11T15:06:41;6.30;1.00
3312;DHT22;1668;49.648;8.570;2023-03-11T15:09:12;6.60;1.00
3312;DHT22;1668;49.648;8.570;2023-03-11T15:11:44;6.80;1.00
3312;DHT22;1668;49.648;8.570;2023-03-11T15:14:30;6.90;1.00
3312;DHT22;1668;49.648;8.570;2023-03-11T15:17:15;7.20;1.00
3312;DHT22;1668;49.648;8.570;2023-03-11T15:19:46;7.40;1.00
3312;DHT22;1668;49.648;8.570;2023-03-11T15:22:24;7.60;1.00
3312;DHT22;1668;49.648;8.570;2023-03-11T15:24:54;7.40;1.00
3312;DHT22;1668;49.648;8.570;2023-03-11T15:27:30;7.20;1.00
3312;DHT22;1668;49.648;8.570;2023-03-11T15:29:58;7.00;1.00
3312;DHT22;1668;49.648;8.570;2023-03-11T15:32:37;6.90;1.00
3312;DHT22;1668;49.648;8.570;2023-03-11T15:35:14;6.80;1.00
3312;DHT22;1668;49.648;8.570;2023-03-11T15:37:42;6.80;1.00
3312;DHT22;1668;49.648;8.570;2023-03-11T15:40:17;6.80;1.00
3312;DHT22;1668;49.648;8.570;2023-03-11T15:42:44;6.70;1.00
3312;DHT22;1668;49.648;8.570;2023-03-11T15:45:16;6.60;1.00
3312;DHT22;1668;49.648;8.570;2023-03-11T15:47:44;6.70;1.00
3312;DHT22;1668;49.648;8.570;2023-03-11T15:50:22;6.60;1.00
3312;DHT22;1668;49.648;8.570;2023-03-11T15:52:50;6.60;1.00
3312;DHT22;1668;49.648;8.570;2023-03-11T15:55:19;6.60;1.00
3312;DHT22;1668;49.648;8.570;2023-03-11T15:57:47;6.60;1.00
3312;DHT22;1668;49.648;8.570;2023-03-11T16:00:17;6.50;1.00
3312;DHT22;1668;49.648;8.570;2023-03-11T16:02:44;6.50;1.00
3312;DHT22;1668;49.648;8.570;2023-03-11T16:05:17;6.60;1.00
3312;DHT22;1668;49.648;8.570;2023-03-11T16:07:45;6.40;1.00
3312;DHT22;1668;49.648;8.570;2023-03-11T16:10:14;6.20;1.00
3312;DHT22;1668;49.648;8.570;2023-03-11T16:12:44;6.10;1.00
3312;DHT22;1668;49.648;8.570;2023-03-11T16:15:18;6.00;1.00
3312;DHT22;1668;49.648;8.570;2023-03-11T16:17:46;6.00;1.00
3312;DHT22;1668;49.648;8.570;2023-03-11T16:20:15;6.00;1.00
3312;DHT22;1668;49.648;8.570;2023-03-11T16:22:42;6.00;1.00
3312;DHT22;1668;49.648;8.570;2023-03-11T16:25:18;5.90;1.00
3312;DHT22;1668;49.648;8.570;2023-03-11T16:27:49;5.90;1.00
3312;DHT22;1668;49.648;8.570;2023-03-11T16:30:16;5.80;1.00
3312;DHT22;1668;49.648;8.570;2023-03-11T16:32:44;5.80;1.00
3312;DHT22;1668;49.648;8.570;2023-03-11T16:35:10;5.80;1.00
3312;DHT22;1668;49.648;8.570;2023-03-11T16:37:38;5.80;1.00
3312;DHT22;1668;49.648;8.570;2023-03-11T16:40:11;5.80;1.00
3312;DHT22;1668;49.648;8.570;2023-03-11T16:42:38;5.70;1.00
3312;DHT22;1668;49.648;8.570;2023-03-11T16:45:07;5.70;1.00
3312;DHT22;1668;49.648;8.570;2023-03-11T16:47:34;5.70;1.00
3312;DHT22;1668;49.648;8.570;2023-03-11T16:50:01;5.70;1.00
3312;DHT22;1668;49.648;8.570;2023-03-11T16:52:28;5.60;1.00
3312;DHT22;1668;49.648;8.570;2023-03-11T16:54:55;5.50;1.00
3312;DHT22;1668;49.648;8.570;2023-03-11T16:57:22;5.40;1.00
3312;DHT22;1668;49.648;8.570;2023-03-11T16:59:49;5.40;1.00
3312;DHT22;1668;49.648;8.570;2023-03-11T17:02:19;5.30;1.00
3312;DHT22;1668;49.648;8.570;2023-03-11T17:04:47;5.20;1.00